Time;durP1;ratioP1;P1;durP2;ratioP2;P2;SDS_P1;SDS_P2;PMS_P1;PMS_P2;Temp;Humidity;BMP_temperature;BMP_pressure;BME280_temperature;BME280_humidity;BME280_pressure;Samples;Min_cycle;Max_cycle;Signal;HPM_P1;HPM_P2
2021/04/10 00:00:44;;;;;;;43.43;23.20;;;;;;;3.08;100.00;102615.75;4974038;28;20234;-70
2021/04/10 00:03:10;;;;;;;41.77;23.73;;;;;;;3.09;100.00;102603.63;4990385;28;20175;-71
2021/04/10 00:05:37;;;;;;;43.10;23.60;;;;;;;3.12;100.00;102604.47;4992659;28;20160;-72
2021/04/10 00:08:03;;;;;;;46.00;31.17;;;;;;;3.06;100.00;102607.97;4985465;28;20415;-71
2021/04/10 00:10:30;;;;;;;36.37;21.97;;;;;;;3.06;100.00;102596.72;4978768;28;20431;-72
2021/04/10 00:12:59;;;;;;;30.63;18.80;;;;;;;3.05;100.00;102601.06;4990963;28;20509;-71
2021/04/10 00:15:27;;;;;;;25.07;14.00;;;;;;;2.98;100.00;102595.91;5002390;28;20491;-71
2021/04/10 00:17:54;;;;;;;28.33;18.60;;;;;;;2.84;100.00;102592.50;4992541;28;20458;-71
2021/04/10 00:20:20;;;;;;;27.97;17.50;;;;;;;2.77;100.00;102591.66;4991926;28;20422;-74
2021/04/10 00:22:46;;;;;;;29.77;18.37;;;;;;;2.70;100.00;102597.75;4977718;28;20418;-73
2021/04/10 00:25:13;;;;;;;29.70;18.10;;;;;;;2.69;100.00;102596.03;4977408;28;20431;-69
2021/04/10 00:27:39;;;;;;;25.63;19.10;;;;;;;2.69;100.00;102596.03;4979957;28;20953;-71
2021/04/10 00:30:07;;;;;;;30.00;17.13;;;;;;;2.66;100.00;102593.47;4992253;28;20519;-72
2021/04/10 00:32:32;;;;;;;29.70;17.33;;;;;;;2.64;100.00;102595.19;4979215;28;20392;-72
2021/04/10 00:34:58;;;;;;;31.50;18.33;;;;;;;2.58;100.00;102590.91;4973196;28;20407;-70
2021/04/10 00:37:24;;;;;;;27.43;15.03;;;;;;;2.52;100.00;102588.31;4983012;28;20182;-73
2021/04/10 00:39:49;;;;;;;27.93;19.33;;;;;;;2.57;100.00;102590.88;4978533;28;20529;-76
2021/04/10 00:42:14;;;;;;;33.20;20.07;;;;;;;2.46;100.00;102594.38;4972837;28;20645;-73
2021/04/10 00:44:40;;;;;;;25.23;16.83;;;;;;;2.55;100.00;102590.88;4979904;28;20225;-72
2021/04/10 00:47:06;;;;;;;25.57;15.00;;;;;;;2.56;100.00;102592.59;4992262;28;20170;-72
2021/04/10 00:49:31;;;;;;;39.37;21.87;;;;;;;2.53;100.00;102584.84;4992270;28;20163;-68
2021/04/10 00:51:57;;;;;;;29.70;19.43;;;;;;;2.51;100.00;102578.81;4989397;28;20249;-71
2021/04/10 00:54:23;;;;;;;34.37;21.87;;;;;;;2.48;100.00;102586.59;4992043;28;20237;-69
2021/04/10 00:56:48;;;;;;;37.70;21.63;;;;;;;2.38;100.00;102585.75;4992322;28;20554;-69
2021/04/10 00:59:14;;;;;;;32.33;19.50;;;;;;;2.36;100.00;102589.25;4989634;28;20454;-70
2021/04/10 01:01:39;;;;;;;30.13;20.70;;;;;;;2.35;100.00;102587.50;4984575;28;20219;-69
2021/04/10 01:04:05;;;;;;;41.73;21.77;;;;;;;2.27;100.00;102584.94;4972600;28;20176;-70
2021/04/10 01:06:32;;;;;;;43.37;26.30;;;;;;;2.29;100.00;102578.00;4977342;28;20834;-73
2021/04/10 01:08:57;;;;;;;34.90;23.43;;;;;;;2.28;100.00;102580.63;4991771;28;20151;-74
2021/04/10 01:11:44;;;;;;;45.93;25.53;;;;;;;2.15;100.00;102578.03;4990599;28;20762;-75
2021/04/10 01:14:21;;;;;;;41.77;23.30;;;;;;;2.13;100.00;102581.50;4989747;28;20170;-72
2021/04/10 01:16:54;;;;;;;31.57;23.07;;;;;;;2.07;100.00;102577.19;4972412;28;20469;-75
2021/04/10 01:19:20;;;;;;;39.70;21.00;;;;;;;2.01;100.00;102581.53;4989160;28;20507;-73
2021/04/10 01:21:57;;;;;;;29.97;20.40;;;;;;;2.03;100.00;102574.59;5004850;28;20410;-70
2021/04/10 01:24:41;;;;;;;33.17;19.50;;;;;;;1.89;100.00;102575.50;4981955;28;20591;-71
2021/04/10 01:27:07;;;;;;;32.33;19.13;;;;;;;1.89;100.00;102572.03;4991523;28;20442;-73
2021/04/10 01:29:40;;;;;;;34.00;20.93;;;;;;;1.89;100.00;102565.13;4991598;28;20862;-72
2021/04/10 01:32:06;;;;;;;30.00;19.10;;;;;;;1.88;100.00;102571.16;4978782;28;20286;-72
2021/04/10 01:34:37;;;;;;;38.60;26.30;;;;;;;1.87;100.00;102573.75;4976745;28;20431;-71
2021/04/10 01:37:10;;;;;;;33.33;22.90;;;;;;;1.89;100.00;102564.25;4990639;28;20650;-70
2021/04/10 01:39:38;;;;;;;50.67;28.10;;;;;;;1.84;100.00;102569.47;4989512;28;20422;-70
2021/04/10 01:42:05;;;;;;;49.67;27.80;;;;;;;1.89;100.00;102561.66;4991463;28;20406;-71
2021/04/10 01:44:31;;;;;;;44.03;30.70;;;;;;;1.93;100.00;102564.25;4991468;28;20391;-70
2021/04/10 01:46:58;;;;;;;48.13;30.20;;;;;;;1.98;100.00;102563.41;4991828;28;20414;-76
2021/04/10 01:49:26;;;;;;;41.77;26.13;;;;;;;1.99;100.00;102562.53;4987558;28;20910;-70
2021/04/10 01:51:53;;;;;;;57.47;34.30;;;;;;;1.93;100.00;102564.25;4972938;28;20915;-77
2021/04/10 01:54:19;;;;;;;53.20;33.83;;;;;;;1.88;100.00;102557.34;4981053;28;20878;-71
2021/04/10 01:56:47;;;;;;;52.73;29.77;;;;;;;1.94;100.00;102554.75;4972154;28;20408;-71
2021/04/10 01:59:16;;;;;;;52.60;30.77;;;;;;;1.88;100.00;102557.34;4973022;28;20557;-70
2021/04/10 02:01:47;;;;;;;55.20;30.50;;;;;;;1.90;100.00;102548.72;4972239;28;20781;-73
2021/04/10 02:04:13;;;;;;;48.20;30.87;;;;;;;1.90;100.00;102553.91;4975430;28;20418;-70
2021/04/10 02:06:44;;;;;;;45.03;28.63;;;;;;;1.91;100.00;102545.25;4975304;28;20497;-70
2021/04/10 02:09:11;;;;;;;48.90;25.30;;;;;;;1.92;100.00;102552.16;4976193;28;20415;-71
2021/04/10 02:11:38;;;;;;;43.93;27.00;;;;;;;1.89;100.00;102546.09;4975504;28;20498;-70
2021/04/10 02:14:05;;;;;;;42.17;27.17;;;;;;;1.93;100.00;102553.88;4976499;28;20403;-70
2021/04/10 02:16:31;;;;;;;42.10;23.97;;;;;;;1.97;100.00;102553.91;4975864;28;20434;-70
2021/04/10 02:18:59;;;;;;;36.27;22.97;;;;;;;1.96;100.00;102555.59;4979679;28;20538;-70
2021/04/10 02:21:27;;;;;;;37.90;20.83;;;;;;;1.98;100.00;102555.63;4994682;28;20502;-70
2021/04/10 02:23:54;;;;;;;51.90;21.47;;;;;;;1.94;100.00;102563.38;4981464;28;20416;-75
2021/04/10 02:26:21;;;;;;;31.17;21.43;;;;;;;1.91;100.00;102554.78;4975776;28;20435;-71
2021/04/10 02:28:46;;;;;;;38.27;22.70;;;;;;;1.89;100.00;102554.78;4975344;28;20907;-70
2021/04/10 02:31:21;;;;;;;27.47;17.23;;;;;;;1.87;100.00;102550.44;4975017;28;20555;-76
2021/04/10 02:33:49;;;;;;;31.07;20.70;;;;;;;1.87;100.00;102553.03;4976297;28;20426;-73
2021/04/10 02:36:21;;;;;;;42.30;26.97;;;;;;;1.83;100.00;102557.38;4974801;28;20450;-70
2021/04/10 02:38:49;;;;;;;53.57;28.40;;;;;;;1.83;100.00;102553.91;4975176;28;20994;-73
2021/04/10 02:41:22;;;;;;;29.17;21.87;;;;;;;1.86;100.00;102553.91;4994687;28;20846;-72
2021/04/10 02:44:05;;;;;;;47.33;29.63;;;;;;;1.82;100.00;102560.81;4985914;28;20438;-75
2021/04/10 02:46:35;;;;;;;43.53;29.27;;;;;;;1.85;100.00;102560.81;4978228;28;20407;-70
2021/04/10 02:49:06;;;;;;;39.37;25.90;;;;;;;1.82;100.00;102560.81;4991505;28;20402;-78
2021/04/10 02:51:49;;;;;;;42.83;26.70;;;;;;;1.83;100.00;102559.97;4985954;28;20565;-76
2021/04/10 02:54:20;;;;;;;27.73;20.40;;;;;;;1.85;100.00;102557.34;4992555;28;20493;-73
2021/04/10 02:56:51;;;;;;;51.47;34.63;;;;;;;1.79;100.00;102568.59;4982140;28;20431;-72
2021/04/10 02:59:21;;;;;;;58.07;40.13;;;;;;;1.77;100.00;102564.28;4984593;28;20516;-72
2021/04/10 03:01:47;;;;;;;58.63;40.13;;;;;;;1.79;100.00;102554.78;4987332;28;20440;-70
2021/04/10 03:04:13;;;;;;;68.77;43.97;;;;;;;1.83;100.00;102554.78;4996277;28;20402;-71
2021/04/10 03:06:40;;;;;;;71.13;44.90;;;;;;;1.90;100.00;102553.91;5004466;28;20509;-75
2021/04/10 03:09:07;;;;;;;67.13;46.87;;;;;;;1.80;100.00;102557.34;5001817;28;20402;-70
2021/04/10 03:11:33;;;;;;;57.40;35.77;;;;;;;1.93;100.00;102558.22;5000269;28;20410;-74
2021/04/10 03:13:58;;;;;;;65.17;44.40;;;;;;;1.88;100.00;102560.78;4984746;28;20439;-72
2021/04/10 03:16:29;;;;;;;37.97;27.17;;;;;;;1.95;100.00;102561.66;4974331;28;20176;-76
2021/04/10 03:18:56;;;;;;;49.30;32.37;;;;;;;2.00;100.00;102565.13;4989684;28;20289;-73
2021/04/10 03:21:22;;;;;;;44.93;31.80;;;;;;;1.95;100.00;102562.50;5003994;28;20402;-72
2021/04/10 03:23:47;;;;;;;55.10;37.90;;;;;;;1.90;100.00;102563.41;5013156;28;20443;-76
2021/04/10 03:26:13;;;;;;;57.57;40.60;;;;;;;1.95;100.00;102557.34;5009036;28;20158;-77
2021/04/10 03:28:41;;;;;;;40.60;24.77;;;;;;;1.97;100.00;102565.13;5013174;28;20166;-72
2021/04/10 03:31:07;;;;;;;47.73;34.67;;;;;;;1.96;100.00;102558.19;4999402;28;20187;-74
2021/04/10 03:33:33;;;;;;;47.63;31.27;;;;;;;1.98;100.00;102563.41;4982260;28;20441;-72
2021/04/10 03:36:00;;;;;;;33.40;21.23;;;;;;;2.00;100.00;102566.84;4979403;28;20947;-73
2021/04/10 03:38:26;;;;;;;49.60;31.27;;;;;;;1.94;100.00;102567.72;4978671;28;20446;-73
2021/04/10 03:40:52;;;;;;;43.73;29.70;;;;;;;1.98;100.00;102564.25;4982994;28;20431;-71
2021/04/10 03:43:17;;;;;;;37.77;25.20;;;;;;;1.93;100.00;102568.56;4992444;28;20956;-72
2021/04/10 03:45:43;;;;;;;31.10;19.00;;;;;;;1.97;100.00;102570.31;4979084;28;20845;-72
2021/04/10 03:48:11;;;;;;;54.20;32.20;;;;;;;1.93;100.00;102569.44;4990118;28;20174;-73
2021/04/10 03:50:36;;;;;;;44.17;25.87;;;;;;;1.90;100.00;102569.47;4977481;28;20168;-72
2021/04/10 03:53:02;;;;;;;37.90;22.17;;;;;;;1.96;100.00;102576.34;4979712;28;20426;-73
2021/04/10 03:55:27;;;;;;;44.20;28.07;;;;;;;1.84;100.00;102578.97;4972701;28;20207;-70
2021/04/10 03:57:53;;;;;;;40.40;27.73;;;;;;;1.90;100.00;102568.59;4993146;28;20198;-71
2021/04/10 04:00:19;;;;;;;41.63;28.53;;;;;;;2.00;100.00;102574.63;4984845;28;20176;-72
2021/04/10 04:02:45;;;;;;;46.80;28.63;;;;;;;2.02;100.00;102575.47;4972977;28;20229;-72
2021/04/10 04:05:11;;;;;;;38.20;24.13;;;;;;;2.05;100.00;102573.75;4979509;28;20420;-72
2021/04/10 04:07:37;;;;;;;38.00;25.73;;;;;;;2.08;100.00;102573.72;4975370;28;20198;-81
2021/04/10 04:10:03;;;;;;;25.90;19.23;;;;;;;2.14;100.00;102576.31;4982174;28;20943;-72
2021/04/10 04:12:28;;;;;;;33.80;20.70;;;;;;;2.18;100.00;102582.34;4973503;28;20176;-73
2021/04/10 04:14:54;;;;;;;40.60;27.73;;;;;;;2.18;100.00;102577.16;4984499;28;20433;-74
2021/04/10 04:17:20;;;;;;;34.53;20.57;;;;;;;2.18;100.00;102584.94;4984372;28;20179;-79
2021/04/10 04:19:45;;;;;;;36.20;23.50;;;;;;;2.26;100.00;102584.91;4984023;28;20430;-73
2021/04/10 04:22:11;;;;;;;34.23;21.10;;;;;;;2.32;100.00;102587.50;4983024;28;20187;-73
2021/04/10 04:24:37;;;;;;;34.33;22.53;;;;;;;2.36;100.00;102584.06;4972847;28;20167;-75
2021/04/10 04:27:04;;;;;;;29.10;20.50;;;;;;;2.34;100.00;102580.56;4975929;28;20183;-73
2021/04/10 04:29:29;;;;;;;28.60;19.17;;;;;;;2.34;100.00;102578.84;4992615;28;20541;-72
2021/04/10 04:31:55;;;;;;;37.97;23.40;;;;;;;2.28;100.00;102591.00;4980045;28;20951;-74
2021/04/10 04:34:20;;;;;;;34.53;20.63;;;;;;;2.44;100.00;102587.47;4975556;28;20585;-73
2021/04/10 04:36:46;;;;;;;26.17;19.57;;;;;;;2.50;100.00;102590.91;4988346;28;20179;-72
2021/04/10 04:39:11;;;;;;;42.33;24.63;;;;;;;2.63;100.00;102588.25;4991922;28;20203;-72
2021/04/10 04:41:38;;;;;;;34.93;21.17;;;;;;;2.64;100.00;102582.19;4987592;28;20183;-75
2021/04/10 04:44:03;;;;;;;38.43;24.40;;;;;;;2.65;100.00;102592.59;4977637;28;20227;-71
2021/04/10 04:46:29;;;;;;;27.80;19.37;;;;;;;2.76;100.00;102589.94;4989102;28;20426;-73
2021/04/10 04:48:54;;;;;;;28.43;19.97;;;;;;;2.86;100.00;102588.16;4977693;28;20199;-72
2021/04/10 04:51:20;;;;;;;27.83;20.17;;;;;;;2.86;100.00;102586.44;4972230;28;20183;-72
2021/04/10 04:53:46;;;;;;;37.47;22.87;;;;;;;2.89;100.00;102590.75;4972611;28;20651;-73
2021/04/10 04:56:12;;;;;;;36.93;25.73;;;;;;;2.88;100.00;102587.31;4984569;28;20429;-76
2021/04/10 04:58:38;;;;;;;45.10;27.00;;;;;;;3.01;100.00;102595.88;4972676;28;20985;-72
2021/04/10 05:01:03;;;;;;;36.03;25.23;;;;;;;3.05;100.00;102593.25;4974364;28;20584;-71
2021/04/10 05:03:29;;;;;;;42.93;27.70;;;;;;;3.18;100.00;102593.19;4986465;28;20577;-71
2021/04/10 05:05:54;;;;;;;42.27;27.67;;;;;;;3.27;100.00;102598.34;4971657;28;20179;-70
2021/04/10 05:08:20;;;;;;;38.17;20.30;;;;;;;3.32;100.00;102589.66;4988390;28;20159;-74
2021/04/10 05:10:45;;;;;;;38.10;29.37;;;;;;;3.41;100.00;102585.25;4989202;28;20655;-73
2021/04/10 05:13:11;;;;;;;36.10;21.83;;;;;;;3.47;100.00;102585.19;4977432;28;20168;-72
2021/04/10 05:15:36;;;;;;;42.37;26.43;;;;;;;3.51;100.00;102576.50;4981151;28;20226;-75
2021/04/10 05:18:02;;;;;;;34.43;21.93;;;;;;;3.61;100.00;102588.53;4993468;28;20237;-73
2021/04/10 05:20:27;;;;;;;36.20;21.63;;;;;;;3.70;100.00;102579.81;4989229;28;20207;-72
2021/04/10 05:22:56;;;;;;;35.70;24.57;;;;;;;3.80;100.00;102582.34;4985975;28;20187;-70
2021/04/10 05:25:22;;;;;;;45.90;29.67;;;;;;;3.90;100.00;102583.09;4977437;28;20155;-71
2021/04/10 05:27:49;;;;;;;39.43;29.80;;;;;;;3.95;100.00;102581.34;4976212;28;20419;-70
2021/04/10 05:30:15;;;;;;;33.97;20.10;;;;;;;4.00;100.00;102587.34;4973492;28;20438;-76
2021/04/10 05:32:42;;;;;;;29.93;21.60;;;;;;;4.02;100.00;102580.41;4973247;28;20419;-72
2021/04/10 05:35:08;;;;;;;43.83;28.50;;;;;;;4.04;100.00;102586.44;4988572;28;20433;-71
2021/04/10 05:37:34;;;;;;;42.67;26.43;;;;;;;4.11;100.00;102587.25;4972796;28;20423;-73
2021/04/10 05:40:01;;;;;;;26.43;18.93;;;;;;;4.18;100.00;102575.91;4976143;28;20396;-71
2021/04/10 05:42:27;;;;;;;36.00;24.10;;;;;;;4.28;100.00;102585.31;4982226;28;20399;-71
2021/04/10 05:44:52;;;;;;;26.90;19.70;;;;;;;4.38;100.00;102588.66;4989100;28;20449;-70
2021/04/10 05:47:18;;;;;;;38.03;25.60;;;;;;;4.52;100.00;102584.19;4984718;28;20191;-73
2021/04/10 05:49:43;;;;;;;39.17;23.23;;;;;;;4.63;100.00;102582.31;4975698;28;20171;-72
2021/04/10 05:52:09;;;;;;;41.00;27.20;;;;;;;4.70;100.00;102586.56;4975830;28;20641;-71
2021/04/10 05:54:34;;;;;;;43.13;31.17;;;;;;;4.80;100.00;102581.25;4975361;28;20235;-76
2021/04/10 05:56:59;;;;;;;39.90;28.17;;;;;;;4.96;100.00;102574.94;4977961;28;20171;-71
2021/04/10 05:59:25;;;;;;;47.27;32.97;;;;;;;4.97;100.00;102576.66;4984016;28;20207;-73
2021/04/10 06:01:50;;;;;;;36.80;26.77;;;;;;;5.04;100.00;102575.69;4994233;28;20182;-71
2021/04/10 06:04:16;;;;;;;57.73;39.30;;;;;;;5.15;100.00;102581.63;4994112;28;20242;-77
2021/04/10 06:06:42;;;;;;;46.13;29.80;;;;;;;5.26;100.00;102579.72;4994621;28;20556;-72
2021/04/10 06:09:07;;;;;;;48.17;29.10;;;;;;;5.22;100.00;102578.06;4991946;28;20206;-73
2021/04/10 06:11:33;;;;;;;49.90;34.23;;;;;;;5.36;100.00;102576.97;4975958;28;20175;-71
2021/04/10 06:13:58;;;;;;;55.33;37.90;;;;;;;5.49;100.00;102581.97;4975187;28;20163;-71
2021/04/10 06:16:24;;;;;;;58.87;35.63;;;;;;;5.63;100.00;102581.75;4975758;28;20186;-72
2021/04/10 06:18:49;;;;;;;53.90;36.93;;;;;;;5.79;100.00;102578.00;4986676;28;20198;-71
2021/04/10 06:21:15;;;;;;;33.60;26.23;;;;;;;5.90;100.00;102584.81;4992169;28;20171;-71
2021/04/10 06:23:42;;;;;;;60.67;37.83;;;;;;;5.92;100.00;102581.31;4989208;28;20678;-68
2021/04/10 06:26:08;;;;;;;50.10;34.67;;;;;;;6.08;100.00;102580.13;4993500;28;20229;-70
2021/04/10 06:28:33;;;;;;;34.97;24.80;;;;;;;6.16;100.00;102573.91;4978197;28;20814;-72
2021/04/10 06:31:01;;;;;;;52.07;30.07;;;;;;;6.29;100.00;102578.03;4984295;28;20295;-72
2021/04/10 06:33:27;;;;;;;46.60;32.60;;;;;;;6.40;100.00;102578.66;4981507;28;20266;-72
2021/04/10 06:35:53;;;;;;;37.67;24.77;;;;;;;6.45;100.00;102581.19;4993671;28;20864;-75
2021/04/10 06:38:18;;;;;;;39.50;23.63;;;;;;;6.56;100.00;102580.06;4976432;28;20206;-76
2021/04/10 06:40:45;;;;;;;39.63;29.10;;;;;;;6.71;100.00;102586.72;4993231;28;20414;-72
2021/04/10 06:43:10;;;;;;;39.77;26.20;;;;;;;6.78;100.00;102579.63;4981687;28;20239;-71
2021/04/10 06:45:36;;;;;;;35.77;28.00;;;;;;;6.86;100.00;102575.09;4979722;28;20902;-72
2021/04/10 06:48:03;;;;;;;45.53;30.33;;;;;;;7.04;100.00;102579.94;4993749;28;20206;-74
2021/04/10 06:50:29;;;;;;;51.03;27.83;;;;;;;7.13;100.00;102579.72;4992822;28;20235;-73
2021/04/10 06:52:56;;;;;;;43.87;27.67;;;;;;;7.31;100.00;102577.56;4983944;28;20491;-71
2021/04/10 06:55:24;;;;;;;38.07;26.47;;;;;;;7.42;100.00;102576.44;4978414;28;20451;-70
2021/04/10 06:58:03;;;;;;;41.77;28.47;;;;;;;7.58;100.00;102576.91;4974888;28;20451;-72
2021/04/10 07:00:30;;;;;;;42.80;27.70;;;;;;;7.73;100.00;102575.69;4973724;28;20399;-72
2021/04/10 07:02:57;;;;;;;36.90;27.17;;;;;;;7.91;100.00;102572.56;4974256;28;20403;-73
2021/04/10 07:05:23;;;;;;;32.83;20.90;;;;;;;8.07;100.00;102579.13;4992622;28;20410;-74
2021/04/10 07:07:50;;;;;;;32.50;24.03;;;;;;;8.19;100.00;102577.94;4993771;28;20415;-71
2021/04/10 07:10:16;;;;;;;35.90;22.97;;;;;;;8.18;100.00;102572.75;4992661;28;20662;-71
2021/04/10 07:12:42;;;;;;;47.83;28.93;;;;;;;8.43;100.00;102575.59;4993825;28;20402;-67
2021/04/10 07:15:10;;;;;;;27.57;20.53;;;;;;;8.58;100.00;102577.78;4993640;28;20719;-73
2021/04/10 07:17:36;;;;;;;23.23;16.87;;;;;;;8.61;100.00;102575.94;4993863;28;20167;-71
2021/04/10 07:20:27;;;;;;;26.00;19.50;;;;;;;8.78;100.00;102570.19;4993634;28;20914;-76
2021/04/10 07:23:04;;;;;;;22.77;18.80;;;;;;;8.88;100.00;102571.63;4993824;28;20827;-72
2021/04/10 07:25:32;;;;;;;20.80;14.77;;;;;;;8.99;100.00;102573.91;4993360;28;20407;-71
2021/04/10 07:28:27;;;;;;;23.53;17.37;;;;;;;9.15;100.00;102566.47;4993288;28;20422;-71
2021/04/10 07:31:14;;;;;;;32.83;16.63;;;;;;;9.42;100.00;102565.56;4989548;28;20426;-71
2021/04/10 07:33:42;;;;;;;19.53;14.30;;;;;;;9.61;100.00;102568.47;4991879;28;20909;-73
2021/04/10 07:36:10;;;;;;;19.10;11.90;;;;;;;9.66;100.00;102560.41;4987573;28;20942;-78
2021/04/10 07:38:41;;;;;;;14.73;8.47;;;;;;;9.70;94.77;102556.78;4973919;28;20538;-72
2021/04/10 07:41:13;;;;;;;15.60;12.73;;;;;;;9.85;95.91;102552.78;4987572;28;21043;-72
2021/04/10 07:43:40;;;;;;;17.80;12.17;;;;;;;10.02;88.95;102555.66;4992895;28;20438;-70
2021/04/10 07:46:15;;;;;;;13.53;9.07;;;;;;;10.24;79.71;102556.66;4991375;28;20505;-73
2021/04/10 07:48:59;;;;;;;14.10;10.00;;;;;;;10.51;81.24;102556.56;4992742;28;20405;-74
2021/04/10 07:51:27;;;;;;;19.33;10.40;;;;;;;10.73;72.81;102557.47;4988369;28;20772;-70
2021/04/10 07:53:52;;;;;;;14.60;9.03;;;;;;;10.90;67.56;102556.84;4983662;28;20418;-73
2021/04/10 07:56:18;;;;;;;12.17;6.50;;;;;;;11.01;63.77;102552.00;4979729;28;20478;-73
2021/04/10 07:58:43;;;;;;;10.83;7.37;;;;;;;11.19;59.81;102545.16;4973234;28;20250;-71
2021/04/10 08:01:11;;;;;;;13.03;6.90;;;;;;;11.35;60.49;102543.63;4972451;28;20270;-73
2021/04/10 08:03:37;;;;;;;13.50;8.00;;;;;;;11.50;61.59;102543.91;4972997;28;20156;-72
2021/04/10 08:06:05;;;;;;;10.20;7.17;;;;;;;11.77;60.95;102536.59;4976732;28;20391;-75
2021/04/10 08:08:54;;;;;;;11.27;7.43;;;;;;;11.91;56.41;102539.53;4971829;28;20452;-73
2021/04/10 08:11:41;;;;;;;9.63;6.40;;;;;;;12.11;58.10;102541.31;4972875;28;20415;-70
2021/04/10 08:14:13;;;;;;;10.07;5.50;;;;;;;12.26;56.78;102542.41;4979394;28;20414;-74
2021/04/10 08:16:39;;;;;;;6.00;4.00;;;;;;;12.29;50.34;102535.22;4973863;28;20919;-72
2021/04/10 08:19:05;;;;;;;6.80;4.77;;;;;;;12.28;50.67;102536.16;4975839;28;20526;-71
2021/04/10 08:21:31;;;;;;;7.80;5.00;;;;;;;12.35;52.10;102540.22;4988053;28;20418;-69
2021/04/10 08:23:56;;;;;;;7.93;4.90;;;;;;;12.41;51.69;102541.72;4993242;28;20159;-72
2021/04/10 08:26:23;;;;;;;8.47;6.00;;;;;;;12.52;55.66;102544.72;4992477;28;20249;-73
2021/04/10 08:28:49;;;;;;;15.53;9.07;;;;;;;12.59;72.41;102547.94;4989310;28;20435;-73
2021/04/10 08:31:15;;;;;;;17.30;10.10;;;;;;;12.61;82.43;102553.97;4980738;28;20406;-73
2021/04/10 08:33:41;;;;;;;10.33;7.50;;;;;;;12.64;85.47;102552.06;4982062;28;20416;-73
2021/04/10 08:36:11;;;;;;;14.77;9.17;;;;;;;12.75;88.45;102551.56;4972469;28;20164;-71
2021/04/10 08:38:41;;;;;;;12.87;10.10;;;;;;;12.77;100.00;102558.50;4998471;28;20213;-72
2021/04/10 08:41:10;;;;;;;14.20;10.40;;;;;;;12.58;100.00;102557.63;5011279;28;20393;-72
2021/04/10 08:43:48;;;;;;;21.63;10.33;;;;;;;12.60;100.00;102557.53;4997401;28;20915;-72
2021/04/10 08:46:18;;;;;;;15.50;9.53;;;;;;;12.73;100.00;102549.00;4976322;28;20409;-77
2021/04/10 08:48:45;;;;;;;15.40;8.83;;;;;;;12.82;100.00;102554.78;4985007;28;20476;-71
2021/04/10 08:51:15;;;;;;;11.73;7.77;;;;;;;12.70;100.00;102551.78;4982011;28;20411;-73
2021/04/10 08:53:47;;;;;;;14.37;8.57;;;;;;;12.59;100.00;102547.94;4991256;28;20435;-71
2021/04/10 08:56:16;;;;;;;12.77;8.70;;;;;;;12.65;100.00;102548.50;4990407;28;20418;-72
2021/04/10 08:58:42;;;;;;;14.33;8.17;;;;;;;12.76;100.00;102546.22;4991323;28;20483;-73
2021/04/10 09:01:22;;;;;;;16.57;8.37;;;;;;;12.64;100.00;102536.25;4991912;28;20475;-71
2021/04/10 09:03:49;;;;;;;11.73;8.83;;;;;;;12.78;99.83;102540.88;4991105;28;20398;-71
2021/04/10 09:06:17;;;;;;;9.13;7.17;;;;;;;12.91;90.75;102534.06;4991094;28;20773;-70
2021/04/10 09:08:43;;;;;;;12.47;7.77;;;;;;;12.94;90.75;102533.94;4979143;28;20418;-72
2021/04/10 09:11:18;;;;;;;15.03;8.97;;;;;;;12.97;97.06;102533.78;4972308;28;20411;-72
2021/04/10 09:13:48;;;;;;;14.90;8.30;;;;;;;12.94;100.00;102531.31;4971246;28;20267;-76
2021/04/10 09:16:25;;;;;;;13.63;8.17;;;;;;;12.95;100.00;102529.53;4973276;28;20426;-71
2021/04/10 09:19:11;;;;;;;12.67;8.60;;;;;;;13.13;100.00;102533.06;4971772;28;20454;-72
2021/04/10 09:21:45;;;;;;;17.63;9.00;;;;;;;13.13;100.00;102523.34;4966049;28;20449;-72
2021/04/10 09:24:36;;;;;;;12.63;9.23;;;;;;;13.09;100.00;102529.72;4970662;28;20395;-80
2021/04/10 09:27:21;;;;;;;13.77;9.53;;;;;;;13.01;100.00;102523.97;4969710;28;20435;-71
2021/04/10 09:30:01;;;;;;;12.77;7.70;;;;;;;13.16;100.00;102517.94;4976996;28;20974;-76
2021/04/10 09:32:41;;;;;;;10.13;7.57;;;;;;;13.32;100.00;102516.28;4971408;28;20656;-74
2021/04/10 09:35:12;;;;;;;17.33;8.67;;;;;;;13.39;100.00;102524.75;4972228;28;20795;-69
2021/04/10 09:37:37;;;;;;;12.80;7.80;;;;;;;13.47;100.00;102519.09;4990026;28;20433;-72
2021/04/10 09:40:21;;;;;;;10.20;8.70;;;;;;;13.78;97.22;102515.75;4984903;28;20414;-72
2021/04/10 09:42:49;;;;;;;11.40;8.50;;;;;;;14.47;90.97;102509.47;4974054;28;20248;-74
2021/04/10 09:45:17;;;;;;;12.40;7.50;;;;;;;14.66;76.87;102504.84;4981119;28;20777;-70
2021/04/10 09:48:01;;;;;;;15.10;8.37;;;;;;;15.17;72.22;102495.75;4990439;28;20387;-72
2021/04/10 09:50:41;;;;;;;14.80;8.17;;;;;;;15.84;67.04;102498.03;5006760;28;20406;-71
2021/04/10 09:53:15;;;;;;;13.10;8.53;;;;;;;17.02;63.13;102491.47;5009598;28;20399;-71
2021/04/10 09:55:44;;;;;;;11.20;7.77;;;;;;;17.12;60.28;102479.28;4988296;28;20455;-71
2021/04/10 09:58:21;;;;;;;10.90;7.67;;;;;;;17.19;60.43;102472.59;4970535;28;20513;-72
2021/04/10 10:00:54;;;;;;;12.40;8.10;;;;;;;17.56;57.32;102475.44;4973974;28;21040;-71
2021/04/10 10:03:22;;;;;;;13.00;8.03;;;;;;;17.67;59.18;102480.84;4990083;28;20879;-72
2021/04/10 10:05:50;;;;;;;11.40;7.50;;;;;;;18.16;59.32;102466.84;4976366;28;20426;-74
2021/04/10 10:08:20;;;;;;;10.40;7.40;;;;;;;18.29;62.05;102473.84;4978904;28;20410;-73
2021/04/10 10:10:53;;;;;;;13.70;7.67;;;;;;;19.15;60.77;102469.38;4971406;28;20431;-74
2021/04/10 10:13:21;;;;;;;9.63;7.50;;;;;;;19.32;58.29;102467.13;4970407;28;20407;-71
2021/04/10 10:15:48;;;;;;;10.93;7.80;;;;;;;19.67;59.61;102466.25;4981208;28;20942;-74
2021/04/10 10:18:17;;;;;;;8.87;7.50;;;;;;;20.66;56.51;102454.81;4986572;28;20543;-73
2021/04/10 10:20:59;;;;;;;9.73;7.27;;;;;;;21.40;53.92;102450.38;4975508;28;20501;-71
2021/04/10 10:23:52;;;;;;;10.60;7.10;;;;;;;22.09;51.75;102447.94;4985402;28;20402;-79
2021/04/10 10:26:24;;;;;;;9.10;6.70;;;;;;;22.78;50.40;102452.44;4992585;28;20529;-75
2021/04/10 10:29:01;;;;;;;11.03;6.73;;;;;;;22.42;51.69;102449.44;4993553;28;20803;-71
2021/04/10 10:31:33;;;;;;;12.80;7.57;;;;;;;22.66;52.76;102458.91;4988560;28;20922;-74
2021/04/10 10:34:06;;;;;;;9.30;7.13;;;;;;;22.42;51.49;102454.78;4992825;28;20473;-77
2021/04/10 10:36:37;;;;;;;12.00;7.57;;;;;;;21.88;51.02;102453.31;4989312;28;20433;-75
2021/04/10 10:39:07;;;;;;;10.70;7.87;;;;;;;22.64;49.80;102453.69;4992854;28;20501;-80
2021/04/10 10:41:46;;;;;;;12.13;6.90;;;;;;;23.41;47.25;102435.91;4995812;28;20417;-72
2021/04/10 10:44:12;;;;;;;11.00;7.20;;;;;;;24.32;46.80;102437.84;4991837;28;20508;-72
2021/04/10 10:46:37;;;;;;;9.77;6.60;;;;;;;24.61;46.69;102434.13;5003686;28;20489;-70
2021/04/10 10:49:10;;;;;;;10.43;6.93;;;;;;;23.76;48.64;102435.28;4993545;28;20635;-82
2021/04/10 10:51:37;;;;;;;12.27;7.50;;;;;;;24.60;47.82;102430.59;4990755;28;20170;-72
2021/04/10 10:54:03;;;;;;;9.53;6.67;;;;;;;24.30;45.70;102425.53;4976845;28;20443;-76
2021/04/10 10:56:30;;;;;;;9.87;6.50;;;;;;;24.75;44.75;102416.63;4975099;28;20426;-69
2021/04/10 10:58:57;;;;;;;9.50;6.50;;;;;;;24.75;42.65;102412.09;4973587;28;20672;-78
2021/04/10 11:01:42;;;;;;;15.00;7.87;;;;;;;24.73;42.59;102418.63;4973316;28;20427;-76
2021/04/10 11:04:10;;;;;;;10.63;7.03;;;;;;;24.93;42.15;102420.13;4998738;28;20913;-69
2021/04/10 11:06:48;;;;;;;11.67;6.73;;;;;;;26.44;42.19;102414.25;5004958;28;20735;-78
2021/04/10 11:09:38;;;;;;;11.73;7.00;;;;;;;25.87;41.65;102406.84;4992743;28;20461;-73
2021/04/10 11:12:05;;;;;;;9.37;6.10;;;;;;;26.79;41.32;102402.34;4982242;28;20897;-72
2021/04/10 11:14:33;;;;;;;14.23;7.23;;;;;;;26.67;40.95;102396.44;4978513;28;20466;-69
2021/04/10 11:17:00;;;;;;;9.40;6.73;;;;;;;26.97;41.15;102389.50;4977338;28;20498;-75
2021/04/10 11:19:35;;;;;;;9.23;6.80;;;;;;;25.08;44.70;102390.84;5012107;28;20841;-74